createdAt,value
2022-12-12T00:01:41.559Z,42.87
2022-12-12T00:04:09.093Z,41.67
2022-12-12T00:06:36.538Z,43.17
2022-12-12T00:09:05.466Z,43.13
2022-12-12T00:11:32.969Z,47.47
2022-12-12T00:14:00.476Z,50.50
2022-12-12T00:16:28.269Z,55.37
2022-12-12T00:18:55.851Z,51.23
2022-12-12T00:21:28.194Z,54.67
2022-12-12T00:23:57.191Z,52.63
2022-12-12T00:26:31.387Z,55.17
2022-12-12T00:29:00.868Z,51.50
2022-12-12T00:31:29.541Z,50.57
2022-12-12T00:33:57.388Z,52.53
2022-12-12T00:36:29.330Z,53.37
2022-12-12T00:38:58.393Z,48.27
2022-12-12T00:41:26.414Z,47.33
2022-12-12T00:43:54.060Z,47.70
2022-12-12T00:46:24.989Z,50.47
2022-12-12T00:48:58.355Z,52.33
2022-12-12T00:51:28.228Z,53.47
2022-12-12T00:53:58.152Z,47.47
2022-12-12T00:56:27.602Z,50.90
2022-12-12T00:58:55.226Z,50.93
2022-12-12T01:01:27.761Z,52.43
2022-12-12T01:03:55.596Z,47.40
2022-12-12T01:06:24.117Z,48.40
2022-12-12T01:08:53.165Z,46.37
2022-12-12T01:11:22.187Z,48.73
2022-12-12T01:13:53.487Z,47.17
2022-12-12T01:16:22.221Z,47.37
2022-12-12T01:18:50.816Z,47.27
2022-12-12T01:21:20.405Z,41.77
2022-12-12T01:23:48.155Z,45.47
2022-12-12T01:26:19.642Z,42.87
2022-12-12T01:28:48.005Z,43.73
2022-12-12T01:31:16.409Z,41.80
2022-12-12T01:33:46.317Z,39.33
2022-12-12T01:36:20.986Z,46.03
2022-12-12T01:38:51.700Z,39.03
2022-12-12T01:41:19.576Z,37.63
2022-12-12T01:43:47.738Z,40.77
2022-12-12T01:46:43.276Z,41.20
2022-12-12T01:49:23.506Z,38.53
2022-12-12T01:51:58.996Z,39.50
2022-12-12T01:54:39.538Z,39.43
2022-12-12T01:57:13.467Z,34.27
2022-12-12T01:59:42.318Z,32.60
2022-12-12T02:02:10.889Z,33.10
2022-12-12T02:04:39.772Z,32.23
2022-12-12T02:07:07.080Z,32.37
2022-12-12T02:09:37.023Z,30.93
2022-12-12T02:12:04.912Z,34.37
2022-12-12T02:14:37.651Z,31.37
2022-12-12T02:17:34.718Z,32.97
2022-12-12T02:20:26.681Z,32.77
2022-12-12T02:23:17.887Z,32.53
2022-12-12T02:26:22.188Z,33.63
2022-12-12T02:28:58.228Z,34.67
2022-12-12T02:31:59.410Z,30.37
2022-12-12T02:34:38.413Z,32.63
2022-12-12T02:37:29.158Z,32.00
2022-12-12T02:40:04.034Z,33.40
2022-12-12T02:42:53.366Z,33.27
2022-12-12T02:45:37.854Z,32.63
2022-12-12T02:48:37.106Z,36.90
2022-12-12T02:51:09.984Z,35.60
2022-12-12T02:53:37.802Z,37.07
2022-12-12T02:56:45.151Z,35.50
2022-12-12T02:59:34.529Z,34.70
2022-12-12T03:02:16.535Z,33.67
2022-12-12T03:05:26.987Z,33.33
2022-12-12T03:08:33.637Z,33.63
2022-12-12T03:11:09.288Z,32.63
2022-12-12T03:13:59.785Z,37.17
2022-12-12T03:17:04.602Z,35.83
2022-12-12T03:20:11.981Z,32.23
2022-12-12T03:22:48.988Z,33.17
2022-12-12T03:25:24.095Z,35.53
2022-12-12T03:28:03.998Z,33.80
2022-12-12T03:30:40.725Z,33.27
2022-12-12T03:33:46.691Z,33.47
2022-12-12T03:36:27.367Z,34.57
2022-12-12T03:39:06.179Z,33.80
2022-12-12T03:41:42.435Z,37.80
2022-12-12T03:44:22.574Z,36.90
2022-12-12T03:46:57.453Z,36.03
2022-12-12T03:49:36.046Z,35.57
2022-12-12T03:52:13.857Z,32.27
2022-12-12T03:54:53.884Z,33.97
2022-12-12T03:57:36.595Z,34.57
2022-12-12T04:00:13.940Z,37.67
2022-12-12T04:03:15.834Z,34.30
2022-12-12T04:06:29.648Z,39.37
2022-12-12T04:09:21.576Z,40.03
2022-12-12T04:12:38.094Z,38.17
2022-12-12T04:15:26.568Z,39.67
2022-12-12T04:18:35.157Z,43.43
2022-12-12T04:21:57.610Z,42.03
2022-12-12T04:24:50.256Z,39.10
2022-12-12T04:27:43.212Z,43.47
2022-12-12T04:30:14.847Z,40.40
2022-12-12T04:32:55.092Z,35.47
2022-12-12T04:35:33.740Z,33.50
2022-12-12T04:38:09.735Z,36.60
2022-12-12T04:40:50.679Z,37.17
2022-12-12T04:43:34.076Z,34.23
2022-12-12T04:46:26.245Z,37.83
2022-12-12T04:49:02.939Z,39.00
2022-12-12T04:51:34.896Z,40.13
2022-12-12T04:54:22.414Z,40.40
2022-12-12T04:56:58.792Z,41.17
2022-12-12T04:59:26.795Z,40.10
2022-12-12T05:01:59.440Z,42.50
2022-12-12T05:04:51.663Z,39.20
2022-12-12T05:07:40.122Z,40.03
2022-12-12T05:10:16.241Z,38.67
2022-12-12T05:12:49.859Z,41.90
2022-12-12T05:15:20.741Z,43.13
2022-12-12T05:18:05.544Z,42.30
2022-12-12T05:20:32.887Z,39.67
2022-12-12T05:23:00.490Z,44.53
2022-12-12T05:25:27.871Z,47.60
2022-12-12T05:27:55.556Z,67.83
2022-12-12T05:30:24.152Z,50.03
2022-12-12T05:32:52.233Z,44.83
2022-12-12T05:35:19.610Z,47.87
2022-12-12T05:37:51.634Z,40.77
2022-12-12T05:40:21.186Z,38.97
2022-12-12T05:42:48.701Z,36.70
2022-12-12T05:45:16.225Z,39.07
2022-12-12T05:47:43.789Z,43.77
2022-12-12T05:50:11.307Z,47.13
2022-12-12T05:52:38.950Z,43.13
2022-12-12T05:55:06.905Z,43.13
2022-12-12T05:57:34.444Z,45.27
2022-12-12T06:00:01.700Z,45.40
2022-12-12T06:02:29.307Z,38.03
2022-12-12T06:04:56.564Z,42.63
2022-12-12T06:07:24.785Z,42.60
2022-12-12T06:09:52.011Z,46.13
2022-12-12T06:12:19.534Z,52.53
2022-12-12T06:14:46.687Z,49.73
2022-12-12T06:17:14.202Z,42.63
2022-12-12T06:19:41.538Z,45.03
2022-12-12T06:22:09.047Z,48.00
2022-12-12T06:24:36.253Z,47.03
2022-12-12T06:27:03.884Z,56.57
2022-12-12T06:29:31.100Z,55.70
2022-12-12T06:31:58.614Z,51.50
2022-12-12T06:34:25.932Z,50.23
2022-12-12T06:36:53.460Z,49.87
2022-12-12T06:39:20.659Z,47.33
2022-12-12T06:41:48.321Z,44.50
2022-12-12T06:44:15.785Z,44.67
2022-12-12T06:46:43.317Z,48.00
2022-12-12T06:49:10.591Z,47.33
2022-12-12T06:51:44.408Z,46.77
2022-12-12T06:54:17.959Z,45.47
2022-12-12T06:56:48.467Z,52.77
2022-12-12T06:59:17.296Z,49.93
2022-12-12T07:01:45.501Z,51.87
2022-12-12T07:04:14.822Z,51.43
2022-12-12T07:06:43.108Z,49.47
2022-12-12T07:09:10.500Z,48.93
2022-12-12T07:11:41.612Z,48.87
2022-12-12T07:14:10.171Z,47.33
2022-12-12T07:16:38.041Z,44.90
2022-12-12T07:19:05.665Z,54.27
2022-12-12T07:21:33.272Z,45.13
2022-12-12T07:24:00.535Z,45.53
2022-12-12T07:26:28.130Z,47.50
2022-12-12T07:28:55.478Z,43.43
2022-12-12T07:31:26.542Z,48.10
2022-12-12T07:33:57.108Z,47.33
2022-12-12T07:36:24.809Z,48.27
2022-12-12T07:38:52.200Z,41.27
2022-12-12T07:41:21.004Z,45.13
2022-12-12T07:43:51.106Z,40.57
2022-12-12T07:46:24.969Z,42.60
2022-12-12T07:48:54.242Z,44.83
2022-12-12T07:51:22.924Z,47.90
2022-12-12T07:53:50.239Z,48.13
2022-12-12T07:56:20.430Z,45.37
2022-12-12T07:58:48.384Z,43.53
2022-12-12T08:01:24.040Z,46.13
2022-12-12T08:03:53.479Z,45.20
2022-12-12T08:06:23.569Z,47.90
2022-12-12T08:08:53.422Z,46.57
2022-12-12T08:11:24.198Z,43.00
2022-12-12T08:13:53.142Z,43.90
2022-12-12T08:16:24.805Z,41.10
2022-12-12T08:18:57.720Z,40.93
2022-12-12T08:21:27.236Z,41.37
2022-12-12T08:24:00.031Z,42.37
2022-12-12T08:26:28.781Z,37.23
2022-12-12T08:28:57.536Z,42.87
2022-12-12T08:31:26.221Z,44.97
2022-12-12T08:33:53.878Z,42.50
2022-12-12T08:36:40.834Z,44.50
2022-12-12T08:39:12.678Z,44.93
2022-12-12T08:41:46.487Z,41.17
2022-12-12T08:44:16.152Z,44.23
2022-12-12T08:46:43.783Z,39.53
2022-12-12T08:49:12.346Z,39.63
2022-12-12T08:51:41.568Z,42.90
2022-12-12T08:54:12.760Z,42.53
2022-12-12T08:56:40.941Z,39.57
2022-12-12T08:59:08.187Z,39.43
2022-12-12T09:01:36.358Z,40.37
2022-12-12T09:04:04.037Z,41.87
2022-12-12T09:06:31.614Z,58.30
2022-12-12T09:08:59.147Z,43.27
2022-12-12T09:11:27.341Z,39.20
2022-12-12T09:13:54.761Z,43.70
2022-12-12T09:16:23.514Z,41.63
2022-12-12T09:18:50.797Z,39.47
2022-12-12T09:21:19.317Z,37.47
2022-12-12T09:23:46.604Z,38.03
2022-12-12T09:26:14.141Z,43.30
2022-12-12T09:28:41.546Z,41.23
2022-12-12T09:31:11.596Z,43.53
2022-12-12T09:33:39.967Z,48.10
2022-12-12T09:36:09.952Z,44.10
2022-12-12T09:38:37.647Z,37.13
2022-12-12T09:41:15.787Z,39.63
2022-12-12T09:44:11.463Z,42.40
2022-12-12T09:46:50.785Z,47.00
2022-12-12T09:49:43.449Z,43.70
2022-12-12T09:52:18.777Z,48.57
2022-12-12T09:54:46.467Z,60.17
2022-12-12T09:57:45.821Z,50.57
2022-12-12T10:00:16.859Z,42.43
2022-12-12T10:03:09.745Z,43.07
2022-12-12T10:09:30.140Z,44.00
2022-12-12T10:12:04.930Z,50.27
2022-12-12T10:14:50.950Z,44.57
2022-12-12T10:17:32.563Z,39.37
2022-12-12T10:20:05.032Z,40.43
2022-12-12T10:22:40.548Z,42.83
2022-12-12T10:25:25.614Z,43.07
2022-12-12T10:28:11.113Z,42.33
2022-12-12T10:31:09.838Z,42.43
2022-12-12T10:33:37.007Z,41.83
2022-12-12T10:36:26.088Z,52.47
2022-12-12T10:39:33.272Z,47.87
2022-12-12T10:42:25.298Z,51.43
2022-12-12T10:45:26.081Z,43.30
2022-12-12T10:47:53.968Z,46.73
2022-12-12T10:50:40.813Z,44.30
2022-12-12T10:53:11.166Z,45.90
2022-12-12T10:55:51.753Z,42.33
2022-12-12T10:58:20.055Z,46.87
2022-12-12T11:00:50.019Z,43.90
2022-12-12T11:03:32.684Z,42.93
2022-12-12T11:06:07.707Z,42.83
2022-12-12T11:08:37.137Z,40.37
2022-12-12T11:11:10.345Z,44.33
2022-12-12T11:13:50.418Z,40.33
2022-12-12T11:16:22.998Z,42.70
2022-12-12T11:19:18.308Z,42.50
2022-12-12T11:21:47.560Z,40.60
2022-12-12T11:24:20.096Z,39.03
2022-12-12T11:27:07.931Z,41.10
2022-12-12T11:29:48.315Z,42.33
2022-12-12T11:32:22.755Z,37.97
2022-12-12T11:35:36.313Z,37.30
2022-12-12T11:38:22.571Z,44.60
2022-12-12T11:41:00.140Z,45.13
2022-12-12T11:43:50.223Z,46.97
2022-12-12T11:46:24.036Z,41.97
2022-12-12T11:48:54.297Z,44.73
2022-12-12T11:51:35.369Z,40.90
2022-12-12T11:54:22.954Z,48.13
2022-12-12T11:57:06.026Z,40.90
2022-12-12T12:00:03.853Z,34.67
2022-12-12T12:03:13.372Z,39.63
2022-12-12T12:06:01.887Z,34.70
2022-12-12T12:09:00.184Z,36.13
2022-12-12T12:11:33.632Z,40.03
2022-12-12T12:14:43.131Z,42.47
2022-12-12T12:17:44.385Z,35.67
2022-12-12T12:20:44.066Z,37.13
2022-12-12T12:23:50.692Z,35.93
2022-12-12T12:26:43.051Z,37.37
2022-12-12T12:29:25.316Z,41.80
2022-12-12T12:32:16.967Z,45.63
2022-12-12T12:35:26.444Z,46.07
2022-12-12T12:37:59.675Z,39.20
2022-12-12T12:40:44.850Z,47.23
2022-12-12T12:43:34.384Z,42.57
2022-12-12T12:46:46.489Z,44.17
2022-12-12T12:49:35.076Z,43.23
2022-12-12T12:52:36.752Z,56.00
2022-12-12T12:55:24.476Z,38.40
2022-12-12T12:57:53.071Z,39.57
2022-12-12T13:00:26.197Z,38.40
2022-12-12T13:03:18.636Z,40.23
2022-12-12T13:05:55.006Z,40.80
2022-12-12T13:08:36.385Z,42.43
2022-12-12T13:11:14.801Z,43.10
2022-12-12T13:13:48.977Z,47.30
2022-12-12T13:16:32.910Z,45.17
2022-12-12T13:19:16.551Z,47.43
2022-12-12T13:21:56.825Z,43.43
2022-12-12T13:24:42.649Z,51.23
2022-12-12T13:27:27.170Z,45.37
2022-12-12T13:30:07.137Z,49.30
2022-12-12T13:32:52.911Z,53.72
2022-12-12T13:35:31.918Z,56.60
2022-12-12T13:38:00.895Z,48.07
2022-12-12T13:40:41.557Z,57.53
2022-12-12T13:43:41.767Z,62.27
2022-12-12T13:46:24.781Z,78.23
2022-12-12T13:49:07.654Z,67.43
2022-12-12T13:51:43.494Z,64.83
2022-12-12T13:54:14.498Z,57.63
2022-12-12T13:56:57.205Z,56.83
2022-12-12T13:59:27.517Z,53.43
2022-12-12T14:02:55.329Z,54.70
2022-12-12T14:05:42.562Z,54.37
2022-12-12T14:08:13.768Z,58.83
2022-12-12T14:10:50.347Z,59.90
2022-12-12T14:13:26.175Z,60.50
2022-12-12T14:16:28.242Z,59.70
2022-12-12T14:19:18.155Z,57.13
2022-12-12T14:21:48.502Z,61.20
2022-12-12T14:24:33.901Z,58.47
2022-12-12T14:27:04.654Z,57.70
2022-12-12T14:29:41.681Z,53.30
2022-12-12T14:32:12.048Z,48.27
2022-12-12T14:35:06.877Z,51.73
2022-12-12T14:37:59.139Z,50.27
2022-12-12T14:40:40.360Z,56.63
2022-12-12T14:43:21.994Z,55.17
2022-12-12T14:45:49.873Z,58.50
2022-12-12T14:48:46.659Z,54.90
2022-12-12T14:51:29.513Z,55.97
2022-12-12T14:54:00.447Z,51.97
2022-12-12T14:56:40.033Z,51.37
2022-12-12T14:59:27.502Z,52.67
2022-12-12T15:02:33.592Z,55.20
2022-12-12T15:05:07.608Z,59.07
2022-12-12T15:07:39.001Z,61.53
2022-12-12T15:10:30.748Z,57.60
2022-12-12T15:12:58.039Z,64.20
2022-12-12T15:15:32.055Z,68.30
2022-12-12T15:18:01.690Z,63.57
2022-12-12T15:20:32.612Z,62.43
2022-12-12T15:23:07.209Z,56.57
2022-12-12T15:25:52.773Z,66.73
2022-12-12T15:28:24.912Z,58.27
2022-12-12T15:30:55.231Z,62.97
2022-12-12T15:33:27.992Z,64.33
2022-12-12T15:36:05.436Z,64.20
2022-12-12T15:38:34.613Z,60.97
2022-12-12T15:41:12.768Z,59.20
2022-12-12T15:43:43.185Z,66.87
2022-12-12T15:46:15.723Z,69.17
2022-12-12T15:48:49.630Z,63.40
2022-12-12T15:51:24.616Z,56.87
2022-12-12T15:53:55.496Z,62.90
2022-12-12T15:56:27.800Z,65.70
2022-12-12T15:59:06.920Z,70.93
2022-12-12T16:01:34.565Z,65.07
2022-12-12T16:04:22.716Z,61.23
2022-12-12T16:06:50.464Z,55.83
2022-12-12T16:09:26.384Z,61.07
2022-12-12T16:11:59.230Z,61.97
2022-12-12T16:14:42.113Z,61.43
2022-12-12T16:17:24.510Z,63.60
2022-12-12T16:20:13.971Z,61.00
2022-12-12T16:22:49.177Z,58.60
2022-12-12T16:25:25.848Z,57.07
2022-12-12T16:28:07.352Z,58.63
2022-12-12T16:30:37.234Z,52.43
2022-12-12T16:33:43.442Z,59.00
2022-12-12T16:36:16.862Z,58.93
2022-12-12T16:38:44.599Z,56.10
2022-12-12T16:41:16.990Z,56.33
2022-12-12T16:43:45.088Z,54.30
2022-12-12T16:46:25.574Z,59.67
2022-12-12T16:48:53.635Z,63.60
2022-12-12T16:51:28.584Z,59.07
2022-12-12T16:53:56.490Z,65.17
2022-12-12T16:56:24.899Z,60.43
2022-12-12T16:58:53.456Z,55.83
2022-12-12T17:01:21.141Z,54.23
2022-12-12T17:03:48.816Z,44.10
2022-12-12T17:06:16.095Z,49.70
2022-12-12T17:08:43.612Z,49.40
2022-12-12T17:11:12.835Z,53.10
2022-12-12T17:13:51.094Z,51.57
2022-12-12T17:16:22.756Z,52.43
2022-12-12T17:18:53.455Z,42.93
2022-12-12T17:21:20.735Z,48.63
2022-12-12T17:23:48.284Z,41.53
2022-12-12T17:26:15.788Z,39.20
2022-12-12T17:28:43.281Z,41.07
2022-12-12T17:31:10.554Z,41.90
2022-12-12T17:33:49.520Z,46.20
2022-12-12T17:36:18.123Z,41.35
2022-12-12T17:38:45.687Z,37.40
2022-12-12T17:41:13.495Z,33.90
2022-12-12T17:43:42.358Z,28.07
2022-12-12T17:46:17.116Z,34.53
2022-12-12T17:48:47.731Z,32.20
2022-12-12T17:51:23.408Z,38.77
2022-12-12T17:53:52.835Z,35.70
2022-12-12T17:56:25.331Z,30.53
2022-12-12T17:58:54.692Z,30.00
2022-12-12T18:01:29.249Z,27.83
2022-12-12T18:03:58.473Z,31.37
2022-12-12T18:06:27.539Z,32.50
2022-12-12T18:08:55.361Z,30.23
2022-12-12T18:11:27.458Z,30.87
2022-12-12T18:13:57.914Z,36.13
2022-12-12T18:16:25.613Z,45.30
2022-12-12T18:18:55.099Z,35.40
2022-12-12T18:21:59.683Z,30.73
2022-12-12T18:24:17.729Z,29.73
2022-12-12T18:26:45.232Z,30.53
2022-12-12T18:29:13.671Z,41.17
2022-12-12T18:31:41.235Z,39.57
2022-12-12T18:34:08.969Z,29.83
2022-12-12T18:36:36.441Z,29.73
2022-12-12T18:39:07.062Z,28.43
2022-12-12T18:41:36.834Z,32.37
2022-12-12T18:44:07.950Z,27.17
2022-12-12T18:46:42.355Z,31.90
2022-12-12T18:49:15.188Z,29.13
2022-12-12T18:51:44.699Z,28.30
2022-12-12T18:54:15.751Z,28.13
2022-12-12T18:56:45.977Z,26.23
2022-12-12T18:59:15.170Z,26.52
2022-12-12T19:01:42.723Z,26.57
2022-12-12T19:04:13.448Z,24.73
2022-12-12T19:06:43.528Z,26.77
2022-12-12T19:09:17.800Z,25.47
2022-12-12T19:11:47.206Z,26.63
2022-12-12T19:14:16.866Z,20.70
2022-12-12T19:16:45.333Z,23.30
2022-12-12T19:19:13.758Z,26.90
2022-12-12T19:21:42.835Z,27.87
2022-12-12T19:24:12.621Z,23.53
2022-12-12T19:26:43.905Z,22.30
2022-12-12T19:29:19.061Z,28.30
2022-12-12T19:31:47.382Z,25.70
2022-12-12T19:34:16.818Z,29.27
2022-12-12T19:36:45.509Z,26.20
2022-12-12T19:39:13.646Z,29.03
2022-12-12T19:41:42.095Z,32.93
2022-12-12T19:44:12.710Z,29.13
2022-12-12T19:46:43.558Z,29.23
2022-12-12T19:49:16.226Z,32.93
2022-12-12T19:51:45.747Z,28.20
2022-12-12T19:54:17.945Z,32.37
2022-12-12T19:56:46.767Z,37.83
2022-12-12T19:59:17.372Z,35.50
2022-12-12T20:01:45.921Z,31.70
2022-12-12T20:04:21.735Z,25.87
2022-12-12T20:06:50.504Z,28.47
2022-12-12T20:09:30.003Z,28.17
2022-12-12T20:12:00.664Z,32.53
2022-12-12T20:14:34.711Z,30.17
2022-12-12T20:17:05.496Z,29.33
2022-12-12T20:19:33.203Z,25.53
2022-12-12T20:22:02.117Z,25.50
2022-12-12T20:24:32.261Z,22.63
2022-12-12T20:27:00.350Z,26.00
2022-12-12T20:29:28.342Z,27.23
2022-12-12T20:31:55.728Z,23.10
2022-12-12T20:34:25.025Z,21.37
2022-12-12T20:36:55.154Z,33.30
2022-12-12T20:39:25.166Z,23.67
2022-12-12T20:41:53.846Z,21.57
2022-12-12T20:44:24.176Z,24.90
2022-12-12T20:46:51.837Z,21.60
2022-12-12T20:49:24.058Z,23.77
2022-12-12T20:51:56.497Z,20.80
2022-12-12T20:54:27.402Z,20.40
2022-12-12T20:56:58.448Z,19.77
2022-12-12T20:59:26.930Z,17.20
2022-12-12T21:01:54.466Z,21.13
2022-12-12T21:04:22.765Z,21.57
2022-12-12T21:06:51.639Z,17.87
2022-12-12T21:09:25.871Z,18.03
2022-12-12T21:11:58.703Z,20.00
2022-12-12T21:14:30.864Z,22.27
2022-12-12T21:16:58.233Z,17.90
2022-12-12T21:19:25.778Z,21.77
2022-12-12T21:21:54.310Z,21.27
2022-12-12T21:24:22.866Z,19.27
2022-12-12T21:26:50.731Z,16.67
2022-12-12T21:29:18.502Z,21.60
2022-12-12T21:31:51.611Z,19.70
2022-12-12T21:34:23.571Z,20.70
2022-12-12T21:36:53.968Z,19.70
2022-12-12T21:39:26.741Z,21.20
2022-12-12T21:41:55.330Z,18.73
2022-12-12T21:44:22.983Z,19.67
2022-12-12T21:46:50.504Z,18.80
2022-12-12T21:49:28.036Z,20.97
2022-12-12T21:52:02.701Z,20.03
2022-12-12T21:54:30.938Z,20.77
2022-12-12T21:57:02.705Z,19.80
2022-12-12T21:59:30.702Z,17.93
2022-12-12T22:02:00.521Z,18.90
2022-12-12T22:04:28.662Z,21.67
2022-12-12T22:06:57.405Z,18.23
2022-12-12T22:09:26.458Z,17.77
2022-12-12T22:12:03.240Z,19.57
2022-12-12T22:14:32.958Z,19.70
2022-12-12T22:17:00.971Z,19.70
2022-12-12T22:19:28.571Z,19.07
2022-12-12T22:21:55.812Z,16.67
2022-12-12T22:24:23.378Z,15.27
2022-12-12T22:26:50.848Z,15.33
2022-12-12T22:29:20.276Z,18.67
2022-12-12T22:31:50.302Z,20.53
2022-12-12T22:34:23.481Z,19.47
2022-12-12T22:36:52.401Z,19.80
2022-12-12T22:39:24.643Z,20.37
2022-12-12T22:41:52.484Z,19.47
2022-12-12T22:44:22.884Z,17.43
2022-12-12T22:46:52.981Z,23.47
2022-12-12T22:49:25.895Z,23.30
2022-12-12T22:51:56.370Z,16.67
2022-12-12T22:54:25.130Z,19.77
2022-12-12T22:56:52.346Z,19.47
2022-12-12T22:59:19.962Z,16.33
2022-12-12T23:01:47.171Z,21.67
2022-12-12T23:04:15.354Z,18.00
2022-12-12T23:06:44.935Z,22.77
2022-12-12T23:09:18.311Z,18.50
2022-12-12T23:11:46.349Z,22.90
2022-12-12T23:14:19.518Z,28.03
2022-12-12T23:16:47.430Z,28.57
2022-12-12T23:19:20.083Z,30.80
2022-12-12T23:21:47.939Z,26.27
2022-12-12T23:24:15.772Z,22.50
2022-12-12T23:26:43.491Z,22.30
2022-12-12T23:29:16.952Z,21.20
2022-12-12T23:31:44.929Z,20.17
2022-12-12T23:34:30.905Z,23.13
2022-12-12T23:36:58.741Z,20.77
2022-12-12T23:39:27.178Z,18.57
2022-12-12T23:41:55.045Z,18.93
2022-12-12T23:44:24.165Z,17.67
2022-12-12T23:46:51.838Z,18.23
2022-12-12T23:49:25.878Z,18.30
2022-12-12T23:51:59.411Z,20.13
2022-12-12T23:54:32.350Z,18.60
2022-12-12T23:57:00.249Z,17.33
2022-12-12T23:59:28.483Z,20.73
